sensor_id;sensor_type;location;lat;lon;timestamp;temperature;humidity
23475;DHT22;11910;52.086;21.066;2022-09-13T00:00:36;11.20;99.90
23475;DHT22;11910;52.086;21.066;2022-09-13T00:03:02;11.30;99.90
23475;DHT22;11910;52.086;21.066;2022-09-13T00:05:28;11.40;99.90
23475;DHT22;11910;52.086;21.066;2022-09-13T00:07:55;11.30;99.90
23475;DHT22;11910;52.086;21.066;2022-09-13T00:10:23;11.20;99.40
23475;DHT22;11910;52.086;21.066;2022-09-13T00:12:49;11.00;99.20
23475;DHT22;11910;52.086;21.066;2022-09-13T00:15:15;10.90;99.90
23475;DHT22;11910;52.086;21.066;2022-09-13T00:17:41;10.90;99.90
23475;DHT22;11910;52.086;21.066;2022-09-13T00:20:07;11.00;99.90
23475;DHT22;11910;52.086;21.066;2022-09-13T00:22:34;10.90;99.90
23475;DHT22;11910;52.086;21.066;2022-09-13T00:25:01;10.80;98.90
23475;DHT22;11910;52.086;21.066;2022-09-13T00:27:26;10.70;99.50
23475;DHT22;11910;52.086;21.066;2022-09-13T00:29:52;10.70;99.90
23475;DHT22;11910;52.086;21.066;2022-09-13T00:32:18;10.70;99.90
23475;DHT22;11910;52.086;21.066;2022-09-13T00:34:44;10.90;99.90
23475;DHT22;11910;52.086;21.066;2022-09-13T00:37:09;10.80;99.70
23475;DHT22;11910;52.086;21.066;2022-09-13T00:39:35;10.70;99.30
23475;DHT22;11910;52.086;21.066;2022-09-13T00:42:01;10.60;98.80
23475;DHT22;11910;52.086;21.066;2022-09-13T00:47:14;10.30;99.40
23475;DHT22;11910;52.086;21.066;2022-09-13T00:49:42;10.20;99.50
23475;DHT22;11910;52.086;21.066;2022-09-13T00:52:15;10.20;99.60
23475;DHT22;11910;52.086;21.066;2022-09-13T00:54:46;10.20;99.90
23475;DHT22;11910;52.086;21.066;2022-09-13T00:57:13;10.40;99.90
23475;DHT22;11910;52.086;21.066;2022-09-13T00:59:43;10.60;99.90
23475;DHT22;11910;52.086;21.066;2022-09-13T01:02:10;10.70;99.90
23475;DHT22;11910;52.086;21.066;2022-09-13T01:04:36;10.70;99.70
23475;DHT22;11910;52.086;21.066;2022-09-13T01:07:06;10.70;99.90
23475;DHT22;11910;52.086;21.066;2022-09-13T01:09:35;10.60;99.30
23475;DHT22;11910;52.086;21.066;2022-09-13T01:14:41;10.50;99.90
23475;DHT22;11910;52.086;21.066;2022-09-13T01:17:08;10.40;99.40
23475;DHT22;11910;52.086;21.066;2022-09-13T01:19:34;10.30;98.90
23475;DHT22;11910;52.086;21.066;2022-09-13T01:22:11;10.20;99.70
23475;DHT22;11910;52.086;21.066;2022-09-13T01:24:54;10.20;99.90
23475;DHT22;11910;52.086;21.066;2022-09-13T01:30:21;10.10;98.40
23475;DHT22;11910;52.086;21.066;2022-09-13T01:38:45;9.80;98.20
23475;DHT22;11910;52.086;21.066;2022-09-13T01:52:16;9.70;99.20
23475;DHT22;11910;52.086;21.066;2022-09-13T01:58:01;10.00;99.30
23475;DHT22;11910;52.086;21.066;2022-09-13T02:00:33;10.10;99.10
23475;DHT22;11910;52.086;21.066;2022-09-13T02:03:16;10.00;98.00
23475;DHT22;11910;52.086;21.066;2022-09-13T02:05:45;9.90;98.50
23475;DHT22;11910;52.086;21.066;2022-09-13T02:08:15;10.00;99.10
23475;DHT22;11910;52.086;21.066;2022-09-13T02:10:58;10.10;99.10
23475;DHT22;11910;52.086;21.066;2022-09-13T02:13:28;10.00;99.30
23475;DHT22;11910;52.086;21.066;2022-09-13T02:16:04;9.90;99.30
23475;DHT22;11910;52.086;21.066;2022-09-13T02:18:38;9.90;99.90
23475;DHT22;11910;52.086;21.066;2022-09-13T02:21:19;9.80;99.90
23475;DHT22;11910;52.086;21.066;2022-09-13T02:24:03;9.90;99.90
23475;DHT22;11910;52.086;21.066;2022-09-13T02:26:33;10.10;99.90
23475;DHT22;11910;52.086;21.066;2022-09-13T02:29:04;10.30;99.90
23475;DHT22;11910;52.086;21.066;2022-09-13T02:31:45;10.30;99.90
23475;DHT22;11910;52.086;21.066;2022-09-13T02:34:23;10.40;99.90
23475;DHT22;11910;52.086;21.066;2022-09-13T02:36:52;10.30;99.90
23475;DHT22;11910;52.086;21.066;2022-09-13T02:39:23;10.30;99.90
23475;DHT22;11910;52.086;21.066;2022-09-13T02:44:56;10.20;99.90
23475;DHT22;11910;52.086;21.066;2022-09-13T02:58:27;10.20;99.90
23475;DHT22;11910;52.086;21.066;2022-09-13T03:00:55;10.00;99.90
23475;DHT22;11910;52.086;21.066;2022-09-13T03:03:21;9.90;99.90
23475;DHT22;11910;52.086;21.066;2022-09-13T03:05:46;9.90;99.90
23475;DHT22;11910;52.086;21.066;2022-09-13T03:08:13;10.00;99.90
23475;DHT22;11910;52.086;21.066;2022-09-13T03:18:40;10.20;99.50
23475;DHT22;11910;52.086;21.066;2022-09-13T03:29:27;9.50;99.30
23475;DHT22;11910;52.086;21.066;2022-09-13T03:37:30;9.50;98.80
23475;DHT22;11910;52.086;21.066;2022-09-13T03:40:13;9.50;99.80
23475;DHT22;11910;52.086;21.066;2022-09-13T03:45:10;9.40;99.10
23475;DHT22;11910;52.086;21.066;2022-09-13T03:47:39;9.30;99.30
23475;DHT22;11910;52.086;21.066;2022-09-13T03:50:07;9.30;99.40
23475;DHT22;11910;52.086;21.066;2022-09-13T03:52:35;9.20;99.50
23475;DHT22;11910;52.086;21.066;2022-09-13T03:55:00;9.30;99.70
23475;DHT22;11910;52.086;21.066;2022-09-13T03:57:27;9.20;98.40
23475;DHT22;11910;52.086;21.066;2022-09-13T03:59:55;9.10;98.70
23475;DHT22;11910;52.086;21.066;2022-09-13T04:02:22;9.00;98.70
23475;DHT22;11910;52.086;21.066;2022-09-13T04:04:49;8.90;98.20
23475;DHT22;11910;52.086;21.066;2022-09-13T04:07:22;8.80;98.60
23475;DHT22;11910;52.086;21.066;2022-09-13T04:09:48;8.70;98.90
23475;DHT22;11910;52.086;21.066;2022-09-13T04:12:15;8.70;98.50
23475;DHT22;11910;52.086;21.066;2022-09-13T04:14:42;8.60;98.90
23475;DHT22;11910;52.086;21.066;2022-09-13T04:17:11;8.60;99.40
23475;DHT22;11910;52.086;21.066;2022-09-13T04:19:37;8.70;99.00
23475;DHT22;11910;52.086;21.066;2022-09-13T04:22:03;8.60;98.90
23475;DHT22;11910;52.086;21.066;2022-09-13T04:24:29;8.70;99.30
23475;DHT22;11910;52.086;21.066;2022-09-13T04:26:56;8.90;99.10
23475;DHT22;11910;52.086;21.066;2022-09-13T04:29:23;9.00;98.70
23475;DHT22;11910;52.086;21.066;2022-09-13T04:31:50;9.00;98.80
23475;DHT22;11910;52.086;21.066;2022-09-13T04:34:17;9.10;98.90
23475;DHT22;11910;52.086;21.066;2022-09-13T04:36:46;9.10;98.50
23475;DHT22;11910;52.086;21.066;2022-09-13T04:39:11;9.00;97.50
23475;DHT22;11910;52.086;21.066;2022-09-13T04:41:41;8.80;97.40
23475;DHT22;11910;52.086;21.066;2022-09-13T04:44:09;8.70;98.40
23475;DHT22;11910;52.086;21.066;2022-09-13T04:46:35;8.80;99.00
23475;DHT22;11910;52.086;21.066;2022-09-13T04:49:00;8.80;99.20
23475;DHT22;11910;52.086;21.066;2022-09-13T04:51:26;8.80;99.10
23475;DHT22;11910;52.086;21.066;2022-09-13T04:53:52;8.90;99.40
23475;DHT22;11910;52.086;21.066;2022-09-13T04:56:20;8.90;99.60
23475;DHT22;11910;52.086;21.066;2022-09-13T04:58:50;9.00;99.70
23475;DHT22;11910;52.086;21.066;2022-09-13T05:01:16;9.00;99.90
23475;DHT22;11910;52.086;21.066;2022-09-13T05:03:42;9.10;99.90
23475;DHT22;11910;52.086;21.066;2022-09-13T05:06:15;9.10;99.90
23475;DHT22;11910;52.086;21.066;2022-09-13T05:08:44;9.10;99.90
23475;DHT22;11910;52.086;21.066;2022-09-13T05:11:13;9.20;99.90
23475;DHT22;11910;52.086;21.066;2022-09-13T05:13:39;9.30;99.90
23475;DHT22;11910;52.086;21.066;2022-09-13T05:16:06;9.30;99.90
23475;DHT22;11910;52.086;21.066;2022-09-13T05:18:34;9.30;99.90
23475;DHT22;11910;52.086;21.066;2022-09-13T05:21:01;9.40;99.90
23475;DHT22;11910;52.086;21.066;2022-09-13T05:23:29;9.70;99.90
23475;DHT22;11910;52.086;21.066;2022-09-13T05:26:03;9.80;99.90
23475;DHT22;11910;52.086;21.066;2022-09-13T05:28:30;9.90;99.90
23475;DHT22;11910;52.086;21.066;2022-09-13T05:31:06;10.10;99.90
23475;DHT22;11910;52.086;21.066;2022-09-13T05:33:35;10.30;99.90
23475;DHT22;11910;52.086;21.066;2022-09-13T05:36:01;10.30;99.90
23475;DHT22;11910;52.086;21.066;2022-09-13T05:38:26;10.30;99.90
23475;DHT22;11910;52.086;21.066;2022-09-13T05:41:03;10.40;99.90
23475;DHT22;11910;52.086;21.066;2022-09-13T05:43:33;10.60;99.90
23475;DHT22;11910;52.086;21.066;2022-09-13T05:46:07;10.70;99.90
23475;DHT22;11910;52.086;21.066;2022-09-13T05:48:35;10.70;99.90
23475;DHT22;11910;52.086;21.066;2022-09-13T05:51:26;10.70;99.90
23475;DHT22;11910;52.086;21.066;2022-09-13T05:53:53;10.80;99.90
23475;DHT22;11910;52.086;21.066;2022-09-13T05:56:25;10.90;99.90
23475;DHT22;11910;52.086;21.066;2022-09-13T05:58:51;10.90;99.90
23475;DHT22;11910;52.086;21.066;2022-09-13T06:01:20;11.00;99.90
23475;DHT22;11910;52.086;21.066;2022-09-13T06:03:47;11.00;99.90
23475;DHT22;11910;52.086;21.066;2022-09-13T06:06:14;11.10;99.90
23475;DHT22;11910;52.086;21.066;2022-09-13T06:08:40;11.20;99.90
23475;DHT22;11910;52.086;21.066;2022-09-13T06:11:08;11.30;99.90
23475;DHT22;11910;52.086;21.066;2022-09-13T06:13:35;11.40;99.90
23475;DHT22;11910;52.086;21.066;2022-09-13T06:16:03;11.40;99.90
23475;DHT22;11910;52.086;21.066;2022-09-13T06:18:29;11.50;99.90
23475;DHT22;11910;52.086;21.066;2022-09-13T06:21:15;11.60;99.90
23475;DHT22;11910;52.086;21.066;2022-09-13T06:23:51;11.70;99.90
23475;DHT22;11910;52.086;21.066;2022-09-13T06:26:26;11.80;99.90
23475;DHT22;11910;52.086;21.066;2022-09-13T06:28:54;11.90;99.90
23475;DHT22;11910;52.086;21.066;2022-09-13T06:31:22;12.10;99.90
23475;DHT22;11910;52.086;21.066;2022-09-13T06:33:53;12.10;99.90
23475;DHT22;11910;52.086;21.066;2022-09-13T06:36:19;12.20;99.90
23475;DHT22;11910;52.086;21.066;2022-09-13T06:38:46;12.30;99.90
23475;DHT22;11910;52.086;21.066;2022-09-13T06:41:20;12.30;99.90
23475;DHT22;11910;52.086;21.066;2022-09-13T06:43:55;12.40;99.90
23475;DHT22;11910;52.086;21.066;2022-09-13T06:46:21;12.50;99.90
23475;DHT22;11910;52.086;21.066;2022-09-13T06:48:47;12.60;99.90
23475;DHT22;11910;52.086;21.066;2022-09-13T06:51:15;12.70;99.90
23475;DHT22;11910;52.086;21.066;2022-09-13T06:53:42;12.90;99.90
23475;DHT22;11910;52.086;21.066;2022-09-13T06:56:12;13.00;99.90
23475;DHT22;11910;52.086;21.066;2022-09-13T06:58:40;13.10;99.90
23475;DHT22;11910;52.086;21.066;2022-09-13T07:01:13;13.20;99.90
23475;DHT22;11910;52.086;21.066;2022-09-13T07:03:43;13.30;99.90
23475;DHT22;11910;52.086;21.066;2022-09-13T07:06:14;13.30;99.90
23475;DHT22;11910;52.086;21.066;2022-09-13T07:08:41;13.50;99.90
23475;DHT22;11910;52.086;21.066;2022-09-13T07:11:13;13.50;99.90
23475;DHT22;11910;52.086;21.066;2022-09-13T07:13:39;13.60;99.90
23475;DHT22;11910;52.086;21.066;2022-09-13T07:16:09;13.70;99.90
23475;DHT22;11910;52.086;21.066;2022-09-13T07:18:36;13.80;99.90
23475;DHT22;11910;52.086;21.066;2022-09-13T07:21:07;13.80;99.90
23475;DHT22;11910;52.086;21.066;2022-09-13T07:23:34;14.00;99.90
23475;DHT22;11910;52.086;21.066;2022-09-13T07:26:01;14.10;99.90
23475;DHT22;11910;52.086;21.066;2022-09-13T07:28:37;14.10;99.90
23475;DHT22;11910;52.086;21.066;2022-09-13T07:33:40;14.30;99.90
23475;DHT22;11910;52.086;21.066;2022-09-13T07:36:07;14.40;99.90
23475;DHT22;11910;52.086;21.066;2022-09-13T07:38:34;14.40;99.90
23475;DHT22;11910;52.086;21.066;2022-09-13T07:41:00;14.50;99.90
23475;DHT22;11910;52.086;21.066;2022-09-13T07:43:28;14.60;99.90
23475;DHT22;11910;52.086;21.066;2022-09-13T07:45:58;14.60;99.90
23475;DHT22;11910;52.086;21.066;2022-09-13T07:48:25;14.70;99.90
23475;DHT22;11910;52.086;21.066;2022-09-13T07:53:38;14.90;99.90
23475;DHT22;11910;52.086;21.066;2022-09-13T07:56:05;15.00;99.90
23475;DHT22;11910;52.086;21.066;2022-09-13T07:58:32;15.00;99.90
23475;DHT22;11910;52.086;21.066;2022-09-13T08:01:06;15.10;99.90
23475;DHT22;11910;52.086;21.066;2022-09-13T08:03:33;15.30;99.90
23475;DHT22;11910;52.086;21.066;2022-09-13T08:05:59;15.30;99.90
23475;DHT22;11910;52.086;21.066;2022-09-13T08:08:25;15.50;99.90
23475;DHT22;11910;52.086;21.066;2022-09-13T08:10:51;15.60;99.90
23475;DHT22;11910;52.086;21.066;2022-09-13T08:13:17;15.80;99.90
23475;DHT22;11910;52.086;21.066;2022-09-13T08:15:43;15.90;99.90
23475;DHT22;11910;52.086;21.066;2022-09-13T08:18:09;16.00;99.90
23475;DHT22;11910;52.086;21.066;2022-09-13T08:20:35;16.20;98.90
23475;DHT22;11910;52.086;21.066;2022-09-13T08:23:02;16.30;98.30
23475;DHT22;11910;52.086;21.066;2022-09-13T08:25:34;16.40;98.10
23475;DHT22;11910;52.086;21.066;2022-09-13T08:28:15;16.50;97.50
23475;DHT22;11910;52.086;21.066;2022-09-13T08:30:42;16.70;97.50
23475;DHT22;11910;52.086;21.066;2022-09-13T08:33:09;16.80;96.40
23475;DHT22;11910;52.086;21.066;2022-09-13T08:35:36;16.90;96.00
23475;DHT22;11910;52.086;21.066;2022-09-13T08:38:03;16.90;94.30
23475;DHT22;11910;52.086;21.066;2022-09-13T08:40:39;17.00;93.50
23475;DHT22;11910;52.086;21.066;2022-09-13T08:45:40;17.10;95.40
23475;DHT22;11910;52.086;21.066;2022-09-13T08:48:15;17.30;94.50
23475;DHT22;11910;52.086;21.066;2022-09-13T08:50:43;17.40;94.40
23475;DHT22;11910;52.086;21.066;2022-09-13T09:00:51;18.00;92.00
23475;DHT22;11910;52.086;21.066;2022-09-13T09:03:44;18.20;91.50
23475;DHT22;11910;52.086;21.066;2022-09-13T09:06:16;18.30;92.40
23475;DHT22;11910;52.086;21.066;2022-09-13T09:08:51;18.30;91.50
23475;DHT22;11910;52.086;21.066;2022-09-13T09:11:46;18.20;91.60
23475;DHT22;11910;52.086;21.066;2022-09-13T09:14:29;18.30;91.50
23475;DHT22;11910;52.086;21.066;2022-09-13T09:17:26;18.30;91.30
23475;DHT22;11910;52.086;21.066;2022-09-13T09:20:44;18.50;91.80
23475;DHT22;11910;52.086;21.066;2022-09-13T09:22:44;18.60;91.50
23475;DHT22;11910;52.086;21.066;2022-09-13T09:25:11;18.70;92.50
23475;DHT22;11910;52.086;21.066;2022-09-13T09:27:36;18.60;91.90
23475;DHT22;11910;52.086;21.066;2022-09-13T09:30:02;18.60;92.80
23475;DHT22;11910;52.086;21.066;2022-09-13T09:37:38;18.90;91.90
23475;DHT22;11910;52.086;21.066;2022-09-13T09:40:08;19.00;92.10
23475;DHT22;11910;52.086;21.066;2022-09-13T09:42:47;19.40;91.90
23475;DHT22;11910;52.086;21.066;2022-09-13T09:45:34;19.80;91.10
23475;DHT22;11910;52.086;21.066;2022-09-13T09:48:07;20.50;90.70
23475;DHT22;11910;52.086;21.066;2022-09-13T09:50:44;20.90;90.40
23475;DHT22;11910;52.086;21.066;2022-09-13T09:53:21;21.00;88.50
23475;DHT22;11910;52.086;21.066;2022-09-13T09:58:42;21.60;89.00
23475;DHT22;11910;52.086;21.066;2022-09-13T10:01:26;21.70;85.80
23475;DHT22;11910;52.086;21.066;2022-09-13T10:04:19;21.70;85.90
23475;DHT22;11910;52.086;21.066;2022-09-13T10:06:46;21.40;84.10
23475;DHT22;11910;52.086;21.066;2022-09-13T10:09:21;21.40;84.30
23475;DHT22;11910;52.086;21.066;2022-09-13T10:11:55;21.70;85.20
23475;DHT22;11910;52.086;21.066;2022-09-13T10:17:27;21.60;81.30
23475;DHT22;11910;52.086;21.066;2022-09-13T10:19:56;21.90;82.00
23475;DHT22;11910;52.086;21.066;2022-09-13T10:22:24;22.40;77.60
23475;DHT22;11910;52.086;21.066;2022-09-13T10:24:50;22.60;78.00
23475;DHT22;11910;52.086;21.066;2022-09-13T10:27:32;22.70;76.00
23475;DHT22;11910;52.086;21.066;2022-09-13T10:30:02;22.40;76.00
23475;DHT22;11910;52.086;21.066;2022-09-13T10:32:29;22.20;77.30
23475;DHT22;11910;52.086;21.066;2022-09-13T10:34:58;21.80;77.30
23475;DHT22;11910;52.086;21.066;2022-09-13T10:37:28;21.50;78.50
23475;DHT22;11910;52.086;21.066;2022-09-13T10:40:16;21.20;77.90
23475;DHT22;11910;52.086;21.066;2022-09-13T10:42:55;21.10;80.40
23475;DHT22;11910;52.086;21.066;2022-09-13T10:45:26;20.90;80.70
23475;DHT22;11910;52.086;21.066;2022-09-13T10:48:17;20.70;81.40
23475;DHT22;11910;52.086;21.066;2022-09-13T10:51:05;20.60;80.70
23475;DHT22;11910;52.086;21.066;2022-09-13T10:53:40;20.70;81.20
23475;DHT22;11910;52.086;21.066;2022-09-13T10:56:27;20.70;80.90
23475;DHT22;11910;52.086;21.066;2022-09-13T10:59:18;20.70;81.80
23475;DHT22;11910;52.086;21.066;2022-09-13T11:02:24;20.70;80.70
23475;DHT22;11910;52.086;21.066;2022-09-13T11:05:21;20.90;81.20
23475;DHT22;11910;52.086;21.066;2022-09-13T11:11:01;21.10;81.50
23475;DHT22;11910;52.086;21.066;2022-09-13T11:13:58;21.10;79.40
23475;DHT22;11910;52.086;21.066;2022-09-13T11:19:11;21.10;80.90
23475;DHT22;11910;52.086;21.066;2022-09-13T11:21:47;21.00;78.70
23475;DHT22;11910;52.086;21.066;2022-09-13T11:26:58;21.00;79.70
23475;DHT22;11910;52.086;21.066;2022-09-13T11:32:43;20.80;77.70
23475;DHT22;11910;52.086;21.066;2022-09-13T11:40:59;20.30;84.10
23475;DHT22;11910;52.086;21.066;2022-09-13T11:43:41;20.30;82.60
23475;DHT22;11910;52.086;21.066;2022-09-13T11:57:19;19.90;83.80
23475;DHT22;11910;52.086;21.066;2022-09-13T12:00:00;19.90;85.50
23475;DHT22;11910;52.086;21.066;2022-09-13T12:02:50;19.80;86.20
23475;DHT22;11910;52.086;21.066;2022-09-13T12:05:22;19.70;86.20
23475;DHT22;11910;52.086;21.066;2022-09-13T12:08:01;19.60;87.80
23475;DHT22;11910;52.086;21.066;2022-09-13T12:13:31;19.60;87.60
23475;DHT22;11910;52.086;21.066;2022-09-13T12:16:07;19.60;87.80
23475;DHT22;11910;52.086;21.066;2022-09-13T12:18:46;19.60;88.20
23475;DHT22;11910;52.086;21.066;2022-09-13T12:21:25;19.50;87.80
23475;DHT22;11910;52.086;21.066;2022-09-13T12:26:52;19.50;89.20
23475;DHT22;11910;52.086;21.066;2022-09-13T12:29:39;19.50;90.20
23475;DHT22;11910;52.086;21.066;2022-09-13T12:32:09;19.50;90.50
23475;DHT22;11910;52.086;21.066;2022-09-13T12:34:55;19.60;90.70
23475;DHT22;11910;52.086;21.066;2022-09-13T12:43:06;19.50;90.60
23475;DHT22;11910;52.086;21.066;2022-09-13T12:48:59;19.30;90.30
23475;DHT22;11910;52.086;21.066;2022-09-13T12:51:38;19.20;91.40
23475;DHT22;11910;52.086;21.066;2022-09-13T13:02:36;18.90;91.60
23475;DHT22;11910;52.086;21.066;2022-09-13T13:06:05;18.90;92.50
23475;DHT22;11910;52.086;21.066;2022-09-13T13:08:27;18.80;92.50
23475;DHT22;11910;52.086;21.066;2022-09-13T13:11:12;18.80;92.70
23475;DHT22;11910;52.086;21.066;2022-09-13T13:13:43;18.80;92.60
23475;DHT22;11910;52.086;21.066;2022-09-13T13:16:28;18.80;92.50
23475;DHT22;11910;52.086;21.066;2022-09-13T13:19:05;18.80;92.90
23475;DHT22;11910;52.086;21.066;2022-09-13T13:21:49;18.80;93.00
23475;DHT22;11910;52.086;21.066;2022-09-13T13:26:56;18.80;93.20
23475;DHT22;11910;52.086;21.066;2022-09-13T13:34:44;18.70;93.50
23475;DHT22;11910;52.086;21.066;2022-09-13T13:39:45;18.60;93.70
23475;DHT22;11910;52.086;21.066;2022-09-13T13:42:29;18.70;93.80
23475;DHT22;11910;52.086;21.066;2022-09-13T13:45:18;18.70;94.70
23475;DHT22;11910;52.086;21.066;2022-09-13T13:48:07;18.80;93.80
23475;DHT22;11910;52.086;21.066;2022-09-13T13:53:34;18.80;94.10
23475;DHT22;11910;52.086;21.066;2022-09-13T13:56:27;18.80;93.70
23475;DHT22;11910;52.086;21.066;2022-09-13T14:01:52;18.80;93.70
23475;DHT22;11910;52.086;21.066;2022-09-13T14:07:35;18.80;94.30
23475;DHT22;11910;52.086;21.066;2022-09-13T14:14:01;18.70;93.40
23475;DHT22;11910;52.086;21.066;2022-09-13T14:19:47;18.60;94.40
23475;DHT22;11910;52.086;21.066;2022-09-13T14:22:18;18.60;94.50
23475;DHT22;11910;52.086;21.066;2022-09-13T14:24:52;18.60;94.50
23475;DHT22;11910;52.086;21.066;2022-09-13T14:29:52;18.60;94.40
23475;DHT22;11910;52.086;21.066;2022-09-13T14:32:23;18.60;94.40
23475;DHT22;11910;52.086;21.066;2022-09-13T14:37:19;18.60;94.70
23475;DHT22;11910;52.086;21.066;2022-09-13T14:39:59;18.60;94.60
23475;DHT22;11910;52.086;21.066;2022-09-13T14:42:26;18.60;95.20
23475;DHT22;11910;52.086;21.066;2022-09-13T14:44:51;18.60;95.30
23475;DHT22;11910;52.086;21.066;2022-09-13T14:47:32;18.60;95.10
23475;DHT22;11910;52.086;21.066;2022-09-13T14:50:10;18.50;95.60
23475;DHT22;11910;52.086;21.066;2022-09-13T14:52:53;18.50;95.10
23475;DHT22;11910;52.086;21.066;2022-09-13T14:55:29;18.50;95.40
23475;DHT22;11910;52.086;21.066;2022-09-13T14:58:04;18.50;95.40
23475;DHT22;11910;52.086;21.066;2022-09-13T15:00:44;18.50;95.50
23475;DHT22;11910;52.086;21.066;2022-09-13T15:03:15;18.50;95.40
23475;DHT22;11910;52.086;21.066;2022-09-13T15:05:41;18.40;95.90
23475;DHT22;11910;52.086;21.066;2022-09-13T15:10:55;18.40;96.20
23475;DHT22;11910;52.086;21.066;2022-09-13T15:13:21;18.40;96.10
23475;DHT22;11910;52.086;21.066;2022-09-13T15:15:47;18.40;96.10
23475;DHT22;11910;52.086;21.066;2022-09-13T15:21:02;18.30;96.10
23475;DHT22;11910;52.086;21.066;2022-09-13T15:23:30;18.30;97.00
23475;DHT22;11910;52.086;21.066;2022-09-13T15:26:10;18.30;96.40
23475;DHT22;11910;52.086;21.066;2022-09-13T15:31:09;18.20;96.50
23475;DHT22;11910;52.086;21.066;2022-09-13T15:33:35;18.20;96.80
23475;DHT22;11910;52.086;21.066;2022-09-13T15:39:25;18.20;97.70
23475;DHT22;11910;52.086;21.066;2022-09-13T15:41:36;18.10;97.00
23475;DHT22;11910;52.086;21.066;2022-09-13T15:44:04;18.10;96.60
23475;DHT22;11910;52.086;21.066;2022-09-13T15:46:30;18.10;96.70
23475;DHT22;11910;52.086;21.066;2022-09-13T15:49:01;18.10;96.50
23475;DHT22;11910;52.086;21.066;2022-09-13T15:51:27;18.10;96.70
23475;DHT22;11910;52.086;21.066;2022-09-13T15:53:53;18.10;96.80
23475;DHT22;11910;52.086;21.066;2022-09-13T15:56:21;18.00;96.70
23475;DHT22;11910;52.086;21.066;2022-09-13T15:58:49;18.00;98.30
23475;DHT22;11910;52.086;21.066;2022-09-13T16:01:15;17.90;98.80
23475;DHT22;11910;52.086;21.066;2022-09-13T16:03:41;17.90;98.00
23475;DHT22;11910;52.086;21.066;2022-09-13T16:06:08;17.90;98.50
23475;DHT22;11910;52.086;21.066;2022-09-13T16:08:38;17.80;98.90
23475;DHT22;11910;52.086;21.066;2022-09-13T16:11:05;17.80;98.90
23475;DHT22;11910;52.086;21.066;2022-09-13T16:13:31;17.80;98.20
23475;DHT22;11910;52.086;21.066;2022-09-13T16:15:58;17.70;97.90
23475;DHT22;11910;52.086;21.066;2022-09-13T16:18:24;17.70;98.50
23475;DHT22;11910;52.086;21.066;2022-09-13T16:20:49;17.70;98.80
23475;DHT22;11910;52.086;21.066;2022-09-13T16:23:15;17.60;99.10
23475;DHT22;11910;52.086;21.066;2022-09-13T16:25:41;17.60;98.80
23475;DHT22;11910;52.086;21.066;2022-09-13T16:28:17;17.60;99.40
23475;DHT22;11910;52.086;21.066;2022-09-13T16:30:46;17.60;99.20
23475;DHT22;11910;52.086;21.066;2022-09-13T16:33:11;17.50;99.40
23475;DHT22;11910;52.086;21.066;2022-09-13T16:35:37;17.50;99.50
23475;DHT22;11910;52.086;21.066;2022-09-13T16:38:03;17.40;98.80
23475;DHT22;11910;52.086;21.066;2022-09-13T16:40:28;17.40;98.80
23475;DHT22;11910;52.086;21.066;2022-09-13T16:42:54;17.40;98.80
23475;DHT22;11910;52.086;21.066;2022-09-13T16:45:20;17.40;99.10
23475;DHT22;11910;52.086;21.066;2022-09-13T16:47:46;17.40;99.00
23475;DHT22;11910;52.086;21.066;2022-09-13T16:50:12;17.30;99.20
23475;DHT22;11910;52.086;21.066;2022-09-13T16:52:38;17.30;99.90
23475;DHT22;11910;52.086;21.066;2022-09-13T16:55:04;17.30;99.90
23475;DHT22;11910;52.086;21.066;2022-09-13T16:57:30;17.30;99.90
23475;DHT22;11910;52.086;21.066;2022-09-13T16:59:56;17.20;99.90
23475;DHT22;11910;52.086;21.066;2022-09-13T17:02:24;17.20;99.90
23475;DHT22;11910;52.086;21.066;2022-09-13T17:04:50;17.10;99.90
23475;DHT22;11910;52.086;21.066;2022-09-13T17:07:15;17.10;99.90
23475;DHT22;11910;52.086;21.066;2022-09-13T17:09:41;17.00;99.90
23475;DHT22;11910;52.086;21.066;2022-09-13T17:12:09;17.00;99.90
23475;DHT22;11910;52.086;21.066;2022-09-13T17:14:35;17.00;99.90
23475;DHT22;11910;52.086;21.066;2022-09-13T17:17:02;17.00;99.90
23475;DHT22;11910;52.086;21.066;2022-09-13T17:19:31;17.00;99.90
23475;DHT22;11910;52.086;21.066;2022-09-13T17:22:02;16.90;99.90
23475;DHT22;11910;52.086;21.066;2022-09-13T17:24:28;16.90;99.90
23475;DHT22;11910;52.086;21.066;2022-09-13T17:26:55;16.90;99.90
23475;DHT22;11910;52.086;21.066;2022-09-13T17:29:21;16.80;99.90
23475;DHT22;11910;52.086;21.066;2022-09-13T17:31:50;16.80;99.90
23475;DHT22;11910;52.086;21.066;2022-09-13T17:34:16;16.80;99.90
23475;DHT22;11910;52.086;21.066;2022-09-13T17:36:43;16.70;99.90
23475;DHT22;11910;52.086;21.066;2022-09-13T17:39:10;16.70;99.90
23475;DHT22;11910;52.086;21.066;2022-09-13T17:41:35;16.70;99.90
23475;DHT22;11910;52.086;21.066;2022-09-13T17:44:01;16.70;99.90
23475;DHT22;11910;52.086;21.066;2022-09-13T17:46:27;16.70;99.90
23475;DHT22;11910;52.086;21.066;2022-09-13T17:48:56;16.60;99.90
23475;DHT22;11910;52.086;21.066;2022-09-13T17:51:24;16.70;99.90
23475;DHT22;11910;52.086;21.066;2022-09-13T17:53:52;16.60;99.90
23475;DHT22;11910;52.086;21.066;2022-09-13T17:56:36;16.60;99.90
23475;DHT22;11910;52.086;21.066;2022-09-13T17:59:16;16.70;99.90
23475;DHT22;11910;52.086;21.066;2022-09-13T18:01:48;16.60;99.90
23475;DHT22;11910;52.086;21.066;2022-09-13T18:04:15;16.60;99.90
23475;DHT22;11910;52.086;21.066;2022-09-13T18:06:41;16.60;99.90
23475;DHT22;11910;52.086;21.066;2022-09-13T18:09:08;16.60;99.90
23475;DHT22;11910;52.086;21.066;2022-09-13T18:11:35;16.60;99.90
23475;DHT22;11910;52.086;21.066;2022-09-13T18:14:17;16.60;99.90
23475;DHT22;11910;52.086;21.066;2022-09-13T18:16:51;16.60;99.90
23475;DHT22;11910;52.086;21.066;2022-09-13T18:19:21;16.70;99.90
23475;DHT22;11910;52.086;21.066;2022-09-13T18:21:54;16.70;99.90
23475;DHT22;11910;52.086;21.066;2022-09-13T18:24:19;16.60;99.90
23475;DHT22;11910;52.086;21.066;2022-09-13T18:26:48;16.60;99.90
23475;DHT22;11910;52.086;21.066;2022-09-13T18:29:14;16.60;99.90
23475;DHT22;11910;52.086;21.066;2022-09-13T18:31:42;16.60;99.90
23475;DHT22;11910;52.086;21.066;2022-09-13T18:34:10;16.60;99.90
23475;DHT22;11910;52.086;21.066;2022-09-13T18:36:37;16.60;99.90
23475;DHT22;11910;52.086;21.066;2022-09-13T18:39:04;16.60;99.90
23475;DHT22;11910;52.086;21.066;2022-09-13T18:41:36;16.50;99.90
23475;DHT22;11910;52.086;21.066;2022-09-13T18:44:02;16.60;99.90
23475;DHT22;11910;52.086;21.066;2022-09-13T18:46:32;16.50;99.90
23475;DHT22;11910;52.086;21.066;2022-09-13T18:48:59;16.60;99.90